Weltonville, New York
Current Conditions -  °F | °C
As of 3:53 AM on Friday 19 Dec 2014 (Local Time) from KBGM Reporting Station
Haze Haze  
Wind Chill: 14°   Ceiling: 1000
Heat Index: 25°   Visibility: 5mi
Dew Point: 23°   Wind: 13mph
Humidity: 92%   Direction: 320°NW
Pressure: 29.95"   Gusts: 21mph
Location:  42.2341°N, 76.1713°W
Report Text: KBGM 190853Z AUTO 32011G18KT 5SM BR OVC010 M04/M05 A2995 RMK AO2 UPB18E23FZRAB23E25 CIG 005V013 SLP162 P0000 60000 T10391050 50004 $
Loading
Personal Weather Stations






























Interactive Weather Map New forecast layout! Learn more

10-Day Weather Forecast

Advertisements
Track Severe Weather on mobile